sensor_id;sensor_type;location;lat;lon;timestamp;P1;durP1;ratioP1;P2;durP2;ratioP2
52342;SDS011;38277;51.972;4.624;2022-11-21T00:00:22;29.8;;;17.0;;
52342;SDS011;38277;51.972;4.624;2022-11-21T00:05:15;27.5;;;15.9;;
52342;SDS011;38277;51.972;4.624;2022-11-21T00:09:58;32.1;;;17.1;;
52342;SDS011;38277;51.972;4.624;2022-11-21T00:14:15;26.8;;;14.1;;
52342;SDS011;38277;51.972;4.624;2022-11-21T00:18:32;25.9;;;13.6;;
52342;SDS011;38277;51.972;4.624;2022-11-21T00:22:50;29.6;;;16.9;;
52342;SDS011;38277;51.972;4.624;2022-11-21T00:28:07;24.3;;;14.0;;
52342;SDS011;38277;51.972;4.624;2022-11-21T00:32:03;23.4;;;12.8;;
52342;SDS011;38277;51.972;4.624;2022-11-21T00:36:29;21.3;;;12.2;;
52342;SDS011;38277;51.972;4.624;2022-11-21T00:41:04;23.0;;;12.7;;
52342;SDS011;38277;51.972;4.624;2022-11-21T00:45:29;23.0;;;12.8;;
52342;SDS011;38277;51.972;4.624;2022-11-21T00:50:03;25.5;;;14.9;;
52342;SDS011;38277;51.972;4.624;2022-11-21T00:54:16;24.3;;;14.4;;
52342;SDS011;38277;51.972;4.624;2022-11-21T00:58:47;28.0;;;15.5;;
52342;SDS011;38277;51.972;4.624;2022-11-21T01:03:42;26.4;;;15.8;;
52342;SDS011;38277;51.972;4.624;2022-11-21T01:07:55;26.6;;;16.0;;
52342;SDS011;38277;51.972;4.624;2022-11-21T01:12:42;29.7;;;18.7;;
52342;SDS011;38277;51.972;4.624;2022-11-21T01:17:01;33.3;;;20.0;;
52342;SDS011;38277;51.972;4.624;2022-11-21T01:21:31;32.6;;;18.0;;
52342;SDS011;38277;51.972;4.624;2022-11-21T01:26:02;28.0;;;17.0;;
52342;SDS011;38277;51.972;4.624;2022-11-21T01:30:26;28.9;;;17.0;;
52342;SDS011;38277;51.972;4.624;2022-11-21T01:34:52;32.7;;;21.0;;
52342;SDS011;38277;51.972;4.624;2022-11-21T01:40:10;32.2;;;19.1;;
52342;SDS011;38277;51.972;4.624;2022-11-21T02:02:16;32.0;;;18.6;;
52342;SDS011;38277;51.972;4.624;2022-11-21T02:06:32;30.6;;;17.4;;
52342;SDS011;38277;51.972;4.624;2022-11-21T02:11:11;34.0;;;20.3;;
52342;SDS011;38277;51.972;4.624;2022-11-21T02:15:49;29.8;;;17.7;;
52342;SDS011;38277;51.972;4.624;2022-11-21T02:25:05;28.4;;;16.9;;
52342;SDS011;38277;51.972;4.624;2022-11-21T02:29:12;37.8;;;21.2;;
52342;SDS011;38277;51.972;4.624;2022-11-21T02:33:32;33.8;;;19.2;;
52342;SDS011;38277;51.972;4.624;2022-11-21T02:38:04;31.2;;;19.7;;
52342;SDS011;38277;51.972;4.624;2022-11-21T02:51:48;25.7;;;15.7;;
52342;SDS011;38277;51.972;4.624;2022-11-21T02:55:58;25.2;;;16.1;;
52342;SDS011;38277;51.972;4.624;2022-11-21T03:00:23;27.4;;;16.0;;
52342;SDS011;38277;51.972;4.624;2022-11-21T03:05:16;34.2;;;19.6;;
52342;SDS011;38277;51.972;4.624;2022-11-21T03:09:17;29.6;;;19.3;;
52342;SDS011;38277;51.972;4.624;2022-11-21T03:13:48;31.2;;;19.0;;
52342;SDS011;38277;51.972;4.624;2022-11-21T03:18:35;34.6;;;19.2;;
52342;SDS011;38277;51.972;4.624;2022-11-21T03:22:57;25.2;;;15.5;;
52342;SDS011;38277;51.972;4.624;2022-11-21T03:27:42;29.8;;;17.7;;
52342;SDS011;38277;51.972;4.624;2022-11-21T03:49:47;22.1;;;14.9;;
52342;SDS011;38277;51.972;4.624;2022-11-21T03:54:29;24.1;;;15.4;;
52342;SDS011;38277;51.972;4.624;2022-11-21T04:07:55;36.7;;;17.0;;
52342;SDS011;38277;51.972;4.624;2022-11-21T04:13:55;31.3;;;15.9;;
52342;SDS011;38277;51.972;4.624;2022-11-21T04:39:47;35.1;;;15.4;;
52342;SDS011;38277;51.972;4.624;2022-11-21T04:43:48;42.0;;;15.7;;
52342;SDS011;38277;51.972;4.624;2022-11-21T04:49:54;24.8;;;14.2;;
52342;SDS011;38277;51.972;4.624;2022-11-21T04:53:27;28.5;;;15.3;;
52342;SDS011;38277;51.972;4.624;2022-11-21T04:57:43;22.0;;;13.4;;
52342;SDS011;38277;51.972;4.624;2022-11-21T05:02:05;21.1;;;12.9;;
52342;SDS011;38277;51.972;4.624;2022-11-21T05:06:44;26.0;;;14.1;;
52342;SDS011;38277;51.972;4.624;2022-11-21T05:24:40;21.2;;;12.9;;
52342;SDS011;38277;51.972;4.624;2022-11-21T05:29:00;21.3;;;13.5;;
52342;SDS011;38277;51.972;4.624;2022-11-21T05:42:49;27.3;;;13.4;;
52342;SDS011;38277;51.972;4.624;2022-11-21T05:47:12;20.8;;;12.6;;
52342;SDS011;38277;51.972;4.624;2022-11-21T05:51:23;19.6;;;11.9;;
52342;SDS011;38277;51.972;4.624;2022-11-21T05:56:18;20.5;;;12.3;;
52342;SDS011;38277;51.972;4.624;2022-11-21T06:00:54;20.4;;;12.5;;
52342;SDS011;38277;51.972;4.624;2022-11-21T06:05:59;25.0;;;13.5;;
52342;SDS011;38277;51.972;4.624;2022-11-21T06:09:34;18.8;;;12.2;;
52342;SDS011;38277;51.972;4.624;2022-11-21T06:36:30;21.1;;;12.3;;
52342;SDS011;38277;51.972;4.624;2022-11-21T06:40:48;20.3;;;12.1;;
52342;SDS011;38277;51.972;4.624;2022-11-21T06:54:49;19.5;;;12.9;;
52342;SDS011;38277;51.972;4.624;2022-11-21T06:58:55;18.0;;;11.0;;
52342;SDS011;38277;51.972;4.624;2022-11-21T07:03:40;18.7;;;11.4;;
52342;SDS011;38277;51.972;4.624;2022-11-21T07:08:34;19.7;;;12.0;;
52342;SDS011;38277;51.972;4.624;2022-11-21T07:13:02;18.6;;;11.2;;
52342;SDS011;38277;51.972;4.624;2022-11-21T07:26:03;23.1;;;14.2;;
52342;SDS011;38277;51.972;4.624;2022-11-21T07:31:10;20.6;;;12.7;;
52342;SDS011;38277;51.972;4.624;2022-11-21T07:35:02;21.7;;;13.0;;
52342;SDS011;38277;51.972;4.624;2022-11-21T07:39:21;20.5;;;12.8;;
52342;SDS011;38277;51.972;4.624;2022-11-21T07:57:35;22.0;;;12.5;;
52342;SDS011;38277;51.972;4.624;2022-11-21T08:02:11;19.6;;;11.5;;
52342;SDS011;38277;51.972;4.624;2022-11-21T08:19:54;16.8;;;9.6;;
52342;SDS011;38277;51.972;4.624;2022-11-21T08:24:28;16.6;;;10.3;;
52342;SDS011;38277;51.972;4.624;2022-11-21T08:29:10;15.5;;;8.5;;
52342;SDS011;38277;51.972;4.624;2022-11-21T08:42:44;16.2;;;8.7;;
52342;SDS011;38277;51.972;4.624;2022-11-21T08:47:13;16.7;;;10.0;;
52342;SDS011;38277;51.972;4.624;2022-11-21T09:00:17;15.0;;;8.1;;
52342;SDS011;38277;51.972;4.624;2022-11-21T09:05:57;16.9;;;8.1;;
52342;SDS011;38277;51.972;4.624;2022-11-21T09:09:40;17.3;;;7.8;;
52342;SDS011;38277;51.972;4.624;2022-11-21T09:14:13;15.4;;;8.1;;
52342;SDS011;38277;51.972;4.624;2022-11-21T09:18:55;12.9;;;6.8;;
52342;SDS011;38277;51.972;4.624;2022-11-21T09:23:13;15.0;;;6.7;;
52342;SDS011;38277;51.972;4.624;2022-11-21T09:27:44;10.8;;;5.1;;
52342;SDS011;38277;51.972;4.624;2022-11-21T09:32:05;26.8;;;6.3;;
52342;SDS011;38277;51.972;4.624;2022-11-21T09:36:54;10.5;;;4.8;;
52342;SDS011;38277;51.972;4.624;2022-11-21T09:41:01;13.3;;;4.6;;
52342;SDS011;38277;51.972;4.624;2022-11-21T09:45:44;11.2;;;5.3;;
52342;SDS011;38277;51.972;4.624;2022-11-21T09:49:55;13.0;;;5.1;;
52342;SDS011;38277;51.972;4.624;2022-11-21T09:55:22;13.9;;;5.1;;
52342;SDS011;38277;51.972;4.624;2022-11-21T09:59:26;15.2;;;5.6;;
52342;SDS011;38277;51.972;4.624;2022-11-21T10:03:35;14.6;;;5.6;;
52342;SDS011;38277;51.972;4.624;2022-11-21T10:07:48;10.8;;;4.8;;
52342;SDS011;38277;51.972;4.624;2022-11-21T10:12:55;15.0;;;5.5;;
52342;SDS011;38277;51.972;4.624;2022-11-21T10:18:06;12.0;;;5.6;;
52342;SDS011;38277;51.972;4.624;2022-11-21T10:24:38;17.3;;;6.1;;
52342;SDS011;38277;51.972;4.624;2022-11-21T10:27:17;14.9;;;6.0;;
52342;SDS011;38277;51.972;4.624;2022-11-21T10:30:41;14.5;;;5.8;;
52342;SDS011;38277;51.972;4.624;2022-11-21T10:35:22;18.7;;;7.1;;
52342;SDS011;38277;51.972;4.624;2022-11-21T10:39:43;18.4;;;7.6;;
52342;SDS011;38277;51.972;4.624;2022-11-21T10:43:49;14.9;;;5.6;;
52342;SDS011;38277;51.972;4.624;2022-11-21T10:48:21;14.2;;;6.6;;
52342;SDS011;38277;51.972;4.624;2022-11-21T10:52:48;16.3;;;7.1;;
52342;SDS011;38277;51.972;4.624;2022-11-21T10:57:50;15.2;;;6.5;;
52342;SDS011;38277;51.972;4.624;2022-11-21T11:03:09;14.5;;;6.6;;
52342;SDS011;38277;51.972;4.624;2022-11-21T11:06:27;16.5;;;6.0;;
52342;SDS011;38277;51.972;4.624;2022-11-21T11:11:06;18.5;;;7.1;;
52342;SDS011;38277;51.972;4.624;2022-11-21T11:15:57;19.6;;;7.8;;
52342;SDS011;38277;51.972;4.624;2022-11-21T11:20:00;17.2;;;7.0;;
52342;SDS011;38277;51.972;4.624;2022-11-21T11:24:51;15.1;;;6.6;;
52342;SDS011;38277;51.972;4.624;2022-11-21T11:28:47;13.3;;;5.8;;
52342;SDS011;38277;51.972;4.624;2022-11-21T11:33:51;16.0;;;5.1;;
52342;SDS011;38277;51.972;4.624;2022-11-21T11:37:57;16.7;;;5.4;;
52342;SDS011;38277;51.972;4.624;2022-11-21T11:43:24;10.8;;;4.5;;
52342;SDS011;38277;51.972;4.624;2022-11-21T11:47:24;10.7;;;4.9;;
52342;SDS011;38277;51.972;4.624;2022-11-21T11:51:22;12.7;;;4.2;;
52342;SDS011;38277;51.972;4.624;2022-11-21T11:56:29;13.7;;;4.8;;
52342;SDS011;38277;51.972;4.624;2022-11-21T12:00:49;12.4;;;4.3;;
52342;SDS011;38277;51.972;4.624;2022-11-21T12:05:11;11.7;;;4.7;;
52342;SDS011;38277;51.972;4.624;2022-11-21T12:09:26;7.8;;;3.5;;
52342;SDS011;38277;51.972;4.624;2022-11-21T12:14:16;10.0;;;3.6;;
52342;SDS011;38277;51.972;4.624;2022-11-21T12:18:35;8.6;;;3.8;;
52342;SDS011;38277;51.972;4.624;2022-11-21T12:23:03;7.0;;;2.8;;
52342;SDS011;38277;51.972;4.624;2022-11-21T12:27:31;10.0;;;3.4;;
52342;SDS011;38277;51.972;4.624;2022-11-21T12:33:01;12.4;;;3.5;;
52342;SDS011;38277;51.972;4.624;2022-11-21T12:36:48;10.0;;;3.5;;
52342;SDS011;38277;51.972;4.624;2022-11-21T12:46:24;14.4;;;3.6;;
52342;SDS011;38277;51.972;4.624;2022-11-21T12:52:03;10.3;;;3.3;;
52342;SDS011;38277;51.972;4.624;2022-11-21T12:55:41;18.1;;;3.1;;
52342;SDS011;38277;51.972;4.624;2022-11-21T13:08:02;8.6;;;2.8;;
52342;SDS011;38277;51.972;4.624;2022-11-21T13:13:13;7.9;;;2.7;;
52342;SDS011;38277;51.972;4.624;2022-11-21T13:17:52;8.8;;;2.8;;
52342;SDS011;38277;51.972;4.624;2022-11-21T13:21:40;11.5;;;3.3;;
52342;SDS011;38277;51.972;4.624;2022-11-21T13:25:58;7.9;;;3.0;;
52342;SDS011;38277;51.972;4.624;2022-11-21T13:30:45;8.6;;;3.1;;
52342;SDS011;38277;51.972;4.624;2022-11-21T13:34:54;9.4;;;2.9;;
52342;SDS011;38277;51.972;4.624;2022-11-21T13:39:46;7.8;;;2.8;;
52342;SDS011;38277;51.972;4.624;2022-11-21T13:50:04;10.8;;;2.9;;
52342;SDS011;38277;51.972;4.624;2022-11-21T13:53:29;9.9;;;3.4;;
52342;SDS011;38277;51.972;4.624;2022-11-21T13:58:58;7.4;;;2.7;;
52342;SDS011;38277;51.972;4.624;2022-11-21T14:04:49;11.1;;;2.8;;
52342;SDS011;38277;51.972;4.624;2022-11-21T14:06:46;9.9;;;3.7;;
52342;SDS011;38277;51.972;4.624;2022-11-21T14:16:05;13.0;;;4.1;;
52342;SDS011;38277;51.972;4.624;2022-11-21T14:20:12;10.4;;;4.1;;
52342;SDS011;38277;51.972;4.624;2022-11-21T14:24:33;9.1;;;3.5;;
52342;SDS011;38277;51.972;4.624;2022-11-21T14:33:40;9.8;;;2.8;;
52342;SDS011;38277;51.972;4.624;2022-11-21T14:42:36;10.2;;;3.6;;
52342;SDS011;38277;51.972;4.624;2022-11-21T14:46:49;9.2;;;2.9;;
52342;SDS011;38277;51.972;4.624;2022-11-21T14:51:16;11.6;;;2.9;;
52342;SDS011;38277;51.972;4.624;2022-11-21T14:55:50;12.9;;;3.9;;
52342;SDS011;38277;51.972;4.624;2022-11-21T15:00:22;14.1;;;3.9;;
52342;SDS011;38277;51.972;4.624;2022-11-21T15:09:17;10.8;;;3.2;;
52342;SDS011;38277;51.972;4.624;2022-11-21T15:14:46;10.6;;;3.9;;
52342;SDS011;38277;51.972;4.624;2022-11-21T15:18:56;11.8;;;4.0;;
52342;SDS011;38277;51.972;4.624;2022-11-21T15:23:23;11.7;;;5.0;;
52342;SDS011;38277;51.972;4.624;2022-11-21T15:27:41;11.0;;;4.4;;
52342;SDS011;38277;51.972;4.624;2022-11-21T15:32:04;11.8;;;4.9;;
52342;SDS011;38277;51.972;4.624;2022-11-21T15:37:02;10.7;;;3.4;;
52342;SDS011;38277;51.972;4.624;2022-11-21T15:40:55;13.4;;;4.1;;
52342;SDS011;38277;51.972;4.624;2022-11-21T15:45:25;13.0;;;4.2;;
52342;SDS011;38277;51.972;4.624;2022-11-21T15:50:09;13.4;;;5.0;;
52342;SDS011;38277;51.972;4.624;2022-11-21T15:54:43;10.8;;;4.0;;
52342;SDS011;38277;51.972;4.624;2022-11-21T15:58:54;12.3;;;4.2;;
52342;SDS011;38277;51.972;4.624;2022-11-21T16:03:34;11.5;;;4.3;;
52342;SDS011;38277;51.972;4.624;2022-11-21T16:08:13;9.3;;;4.3;;
52342;SDS011;38277;51.972;4.624;2022-11-21T16:13:05;11.4;;;3.8;;
52342;SDS011;38277;51.972;4.624;2022-11-21T16:16:58;14.9;;;3.7;;
52342;SDS011;38277;51.972;4.624;2022-11-21T16:21:24;12.1;;;4.1;;
52342;SDS011;38277;51.972;4.624;2022-11-21T16:26:04;11.4;;;4.2;;
52342;SDS011;38277;51.972;4.624;2022-11-21T16:31:02;14.6;;;4.7;;
52342;SDS011;38277;51.972;4.624;2022-11-21T16:35:00;10.6;;;4.0;;
52342;SDS011;38277;51.972;4.624;2022-11-21T16:39:22;9.7;;;3.6;;
52342;SDS011;38277;51.972;4.624;2022-11-21T16:44:10;15.7;;;4.1;;
52342;SDS011;38277;51.972;4.624;2022-11-21T16:48:25;15.4;;;4.9;;
52342;SDS011;38277;51.972;4.624;2022-11-21T16:57:33;10.5;;;3.9;;
52342;SDS011;38277;51.972;4.624;2022-11-21T17:02:35;13.5;;;5.0;;
52342;SDS011;38277;51.972;4.624;2022-11-21T17:06:36;9.1;;;3.5;;
52342;SDS011;38277;51.972;4.624;2022-11-21T17:11:11;10.2;;;4.2;;
52342;SDS011;38277;51.972;4.624;2022-11-21T17:15:17;12.7;;;4.3;;
52342;SDS011;38277;51.972;4.624;2022-11-21T17:20:28;13.2;;;4.5;;
52342;SDS011;38277;51.972;4.624;2022-11-21T17:24:17;13.9;;;5.3;;
52342;SDS011;38277;51.972;4.624;2022-11-21T17:29:10;10.5;;;4.0;;
52342;SDS011;38277;51.972;4.624;2022-11-21T17:33:36;13.0;;;4.6;;
52342;SDS011;38277;51.972;4.624;2022-11-21T17:37:51;7.7;;;3.5;;
52342;SDS011;38277;51.972;4.624;2022-11-21T17:46:51;11.3;;;4.0;;
52342;SDS011;38277;51.972;4.624;2022-11-21T17:51:27;12.4;;;4.6;;
52342;SDS011;38277;51.972;4.624;2022-11-21T17:56:16;12.0;;;4.2;;
52342;SDS011;38277;51.972;4.624;2022-11-21T18:00:52;11.3;;;4.8;;
52342;SDS011;38277;51.972;4.624;2022-11-21T18:05:07;17.3;;;5.0;;
52342;SDS011;38277;51.972;4.624;2022-11-21T18:09:32;13.7;;;5.3;;
52342;SDS011;38277;51.972;4.624;2022-11-21T18:13:50;21.6;;;7.6;;
52342;SDS011;38277;51.972;4.624;2022-11-21T18:18:59;13.2;;;4.8;;
52342;SDS011;38277;51.972;4.624;2022-11-21T18:23:14;10.4;;;4.3;;
52342;SDS011;38277;51.972;4.624;2022-11-21T18:28:08;11.1;;;4.7;;
52342;SDS011;38277;51.972;4.624;2022-11-21T18:36:22;13.3;;;4.7;;
52342;SDS011;38277;51.972;4.624;2022-11-21T18:41:13;12.2;;;5.0;;
52342;SDS011;38277;51.972;4.624;2022-11-21T18:45:24;12.9;;;5.2;;
52342;SDS011;38277;51.972;4.624;2022-11-21T18:54:20;12.8;;;4.6;;
52342;SDS011;38277;51.972;4.624;2022-11-21T18:58:57;11.2;;;5.0;;
52342;SDS011;38277;51.972;4.624;2022-11-21T19:03:35;16.6;;;6.0;;
52342;SDS011;38277;51.972;4.624;2022-11-21T19:17:09;14.4;;;5.6;;
52342;SDS011;38277;51.972;4.624;2022-11-21T19:21:45;9.7;;;3.9;;
52342;SDS011;38277;51.972;4.624;2022-11-21T19:30:44;11.0;;;4.8;;
52342;SDS011;38277;51.972;4.624;2022-11-21T19:35:02;10.0;;;4.7;;
52342;SDS011;38277;51.972;4.624;2022-11-21T19:39:40;12.9;;;4.8;;
52342;SDS011;38277;51.972;4.624;2022-11-21T19:44:14;16.1;;;4.8;;
52342;SDS011;38277;51.972;4.624;2022-11-21T19:52:59;11.4;;;6.0;;
52342;SDS011;38277;51.972;4.624;2022-11-21T20:33:47;12.6;;;4.6;;
52342;SDS011;38277;51.972;4.624;2022-11-21T20:47:09;13.7;;;5.4;;
52342;SDS011;38277;51.972;4.624;2022-11-21T21:05:12;14.3;;;5.5;;
52342;SDS011;38277;51.972;4.624;2022-11-21T21:18:43;13.7;;;4.7;;
52342;SDS011;38277;51.972;4.624;2022-11-21T21:32:09;13.5;;;5.4;;
52342;SDS011;38277;51.972;4.624;2022-11-21T21:40:48;11.4;;;4.8;;
52342;SDS011;38277;51.972;4.624;2022-11-21T21:45:39;13.8;;;4.5;;
52342;SDS011;38277;51.972;4.624;2022-11-21T21:49:54;15.3;;;5.3;;
52342;SDS011;38277;51.972;4.624;2022-11-21T21:54:42;14.2;;;5.5;;
52342;SDS011;38277;51.972;4.624;2022-11-21T22:00:00;12.1;;;4.6;;
52342;SDS011;38277;51.972;4.624;2022-11-21T22:03:50;18.0;;;6.5;;
52342;SDS011;38277;51.972;4.624;2022-11-21T22:13:10;15.4;;;5.9;;
52342;SDS011;38277;51.972;4.624;2022-11-21T22:16:56;13.1;;;5.9;;
52342;SDS011;38277;51.972;4.624;2022-11-21T22:21:25;14.1;;;5.9;;
52342;SDS011;38277;51.972;4.624;2022-11-21T22:26:09;11.6;;;4.8;;
52342;SDS011;38277;51.972;4.624;2022-11-21T22:31:28;10.3;;;4.9;;
52342;SDS011;38277;51.972;4.624;2022-11-21T22:36:01;10.6;;;4.5;;
52342;SDS011;38277;51.972;4.624;2022-11-21T22:46:19;13.1;;;5.5;;
52342;SDS011;38277;51.972;4.624;2022-11-21T22:57:24;10.4;;;4.5;;
52342;SDS011;38277;51.972;4.624;2022-11-21T23:02:24;13.6;;;4.9;;
52342;SDS011;38277;51.972;4.624;2022-11-21T23:06:35;9.6;;;5.1;;
52342;SDS011;38277;51.972;4.624;2022-11-21T23:11:00;11.5;;;5.1;;
52342;SDS011;38277;51.972;4.624;2022-11-21T23:15:43;12.1;;;4.2;;
52342;SDS011;38277;51.972;4.624;2022-11-21T23:19:57;11.5;;;4.9;;
52342;SDS011;38277;51.972;4.624;2022-11-21T23:24:41;10.2;;;5.1;;
52342;SDS011;38277;51.972;4.624;2022-11-21T23:29:38;10.2;;;4.8;;
52342;SDS011;38277;51.972;4.624;2022-11-21T23:33:21;9.4;;;4.4;;
